createdAt,value
2024-05-09T00:00:35.285Z,9.92
2024-05-09T00:04:44.096Z,9.72
2024-05-09T00:08:23.447Z,9.62
2024-05-09T00:11:53.598Z,9.41
2024-05-09T00:15:24.021Z,8.97
2024-05-09T00:18:54.823Z,8.67
2024-05-09T00:22:22.778Z,8.67
2024-05-09T00:26:11.930Z,8.84
2024-05-09T00:29:49.838Z,8.91
2024-05-09T00:33:30.136Z,8.89
2024-05-09T00:37:15.718Z,8.71
2024-05-09T00:41:04.117Z,8.70
2024-05-09T00:44:35.027Z,8.76
2024-05-09T00:48:21.386Z,8.47
2024-05-09T00:52:09.430Z,8.36
2024-05-09T00:55:56.228Z,8.21
2024-05-09T00:59:23.743Z,8.22
2024-05-09T01:02:51.164Z,8.49
2024-05-09T01:06:09.299Z,8.22
2024-05-09T01:09:34.932Z,8.07
2024-05-09T01:13:23.302Z,8.00
2024-05-09T01:17:01.805Z,7.86
2024-05-09T01:20:49.795Z,7.95
2024-05-09T01:24:37.973Z,7.82
2024-05-09T01:28:02.163Z,7.67
2024-05-09T01:31:17.801Z,7.90
2024-05-09T01:34:56.743Z,8.03
2024-05-09T01:38:44.638Z,8.03
2024-05-09T01:42:32.802Z,7.65
2024-05-09T01:46:14.209Z,7.25
2024-05-09T01:50:02.089Z,7.12
2024-05-09T01:53:35.638Z,7.01
2024-05-09T01:56:59.816Z,6.97
2024-05-09T02:00:41.918Z,6.84
2024-05-09T02:04:25.501Z,6.73
2024-05-09T02:08:07.334Z,6.61
2024-05-09T02:18:34.458Z,6.50
2024-05-09T02:23:03.597Z,6.44
2024-05-09T02:27:17.351Z,6.45
2024-05-09T02:31:39.831Z,6.62
2024-05-09T02:35:49.575Z,6.84
2024-05-09T02:40:11.714Z,6.85
2024-05-09T02:44:24.497Z,6.79
2024-05-09T02:48:53.620Z,6.82
2024-05-09T02:52:44.534Z,6.75
2024-05-09T02:57:17.232Z,6.69
2024-05-09T03:01:46.341Z,6.54
2024-05-09T03:05:57.583Z,6.38
2024-05-09T03:10:28.997Z,6.40
2024-05-09T03:14:58.074Z,6.38
2024-05-09T03:18:47.888Z,6.41
2024-05-09T03:23:18.069Z,6.31
2024-05-09T03:27:28.466Z,6.33
2024-05-09T03:31:57.745Z,6.31
2024-05-09T03:36:11.494Z,6.51
2024-05-09T03:40:42.592Z,6.69
2024-05-09T03:45:38.615Z,6.93
2024-05-09T03:49:12.131Z,6.97
2024-05-09T03:53:01.338Z,7.07
2024-05-09T03:56:40.351Z,7.17
2024-05-09T04:00:26.473Z,7.29
2024-05-09T04:04:03.657Z,7.35
2024-05-09T04:07:29.422Z,7.36
2024-05-09T04:10:57.178Z,7.43
2024-05-09T04:14:39.414Z,7.52
2024-05-09T04:18:28.010Z,7.73
2024-05-09T04:21:58.994Z,7.87
2024-05-09T04:25:33.163Z,7.93
2024-05-09T04:28:44.009Z,7.92
2024-05-09T04:32:05.612Z,7.89
2024-05-09T04:35:14.284Z,8.08
2024-05-09T04:38:32.928Z,8.34
2024-05-09T04:42:09.281Z,8.39
2024-05-09T04:45:47.262Z,8.58
2024-05-09T04:49:28.559Z,8.73
2024-05-09T04:53:17.523Z,8.93
2024-05-09T04:57:05.717Z,9.04
2024-05-09T05:00:35.334Z,9.20
2024-05-09T05:04:18.440Z,9.43
2024-05-09T05:08:07.871Z,9.64
2024-05-09T05:12:01.794Z,9.71
2024-05-09T05:15:21.001Z,9.81
2024-05-09T05:18:57.622Z,9.80
2024-05-09T05:22:38.294Z,10.10
2024-05-09T05:26:26.163Z,10.28
2024-05-09T05:30:05.896Z,10.44
2024-05-09T05:36:35.728Z,10.86
2024-05-09T05:41:04.943Z,11.27
2024-05-09T05:45:36.222Z,11.31
2024-05-09T05:50:17.605Z,11.41
2024-05-09T05:54:36.403Z,11.73
2024-05-09T05:58:56.665Z,11.75
2024-05-09T06:02:45.826Z,11.63
2024-05-09T06:07:17.928Z,11.78
2024-05-09T06:11:47.390Z,12.17
2024-05-09T06:16:17.376Z,12.26
2024-05-09T06:20:48.104Z,12.50
2024-05-09T06:25:17.013Z,12.56
2024-05-09T06:29:46.519Z,12.78
2024-05-09T06:34:22.612Z,12.94
2024-05-09T06:38:50.733Z,13.00
2024-05-09T06:43:01.467Z,13.25
2024-05-09T06:47:32.599Z,13.41
2024-05-09T06:52:03.028Z,13.41
2024-05-09T06:56:32.156Z,13.72
2024-05-09T07:01:01.189Z,13.90
2024-05-09T07:05:31.446Z,14.08
2024-05-09T07:09:50.561Z,14.19
2024-05-09T07:14:21.896Z,14.45
2024-05-09T07:18:33.795Z,14.91
2024-05-09T07:23:07.540Z,15.27
2024-05-09T07:27:42.163Z,15.75
2024-05-09T07:32:13.129Z,16.12
2024-05-09T07:36:42.400Z,16.32
2024-05-09T07:41:13.372Z,16.23
2024-05-09T07:45:51.291Z,16.41
2024-05-09T07:54:44.962Z,16.87
2024-05-09T07:59:15.822Z,17.22
2024-05-09T08:03:46.657Z,17.36
2024-05-09T08:08:15.997Z,17.34
2024-05-09T08:12:48.659Z,17.52
2024-05-09T08:17:20.220Z,17.70
2024-05-09T08:21:52.926Z,18.26
2024-05-09T08:26:22.422Z,17.92
2024-05-09T08:30:18.805Z,17.89
2024-05-09T08:34:46.383Z,18.15
2024-05-09T08:39:17.861Z,18.11
2024-05-09T08:43:49.924Z,18.23
2024-05-09T08:48:21.374Z,18.02
2024-05-09T08:52:50.811Z,18.76
2024-05-09T08:57:04.688Z,18.85
2024-05-09T09:01:35.442Z,18.55
2024-05-09T09:06:06.802Z,18.82
2024-05-09T09:10:36.987Z,18.83
2024-05-09T09:18:32.322Z,18.83
2024-05-09T09:22:21.228Z,19.11
2024-05-09T09:25:30.086Z,19.51
2024-05-09T09:29:16.571Z,19.33
2024-05-09T09:32:34.918Z,19.57
2024-05-09T09:35:38.273Z,19.78
2024-05-09T09:39:02.972Z,19.66
2024-05-09T09:42:30.620Z,19.91
2024-05-09T09:46:00.356Z,20.36
2024-05-09T09:49:31.829Z,19.87
2024-05-09T09:53:10.521Z,20.19
2024-05-09T09:56:49.984Z,19.88
2024-05-09T10:00:33.400Z,19.61
2024-05-09T10:04:18.801Z,19.20
2024-05-09T10:07:48.071Z,19.54
2024-05-09T10:11:22.691Z,20.14
2024-05-09T10:14:51.932Z,19.04
2024-05-09T10:18:35.532Z,19.85
2024-05-09T10:22:05.329Z,20.16
2024-05-09T10:25:32.395Z,20.11
2024-05-09T10:28:46.412Z,20.09
2024-05-09T10:32:17.141Z,20.08
2024-05-09T10:35:49.288Z,20.73
2024-05-09T10:39:04.624Z,21.18
2024-05-09T10:42:51.431Z,20.83
2024-05-09T10:46:22.011Z,19.99
2024-05-09T10:49:37.567Z,19.19
2024-05-09T10:53:25.733Z,19.90
2024-05-09T10:56:49.741Z,20.02
2024-05-09T11:00:27.750Z,19.82
2024-05-09T11:04:05.014Z,19.65
2024-05-09T11:07:33.956Z,19.73
2024-05-09T11:11:13.453Z,19.25
2024-05-09T11:15:02.834Z,19.21
2024-05-09T11:18:33.444Z,19.29
2024-05-09T11:22:24.398Z,19.51
2024-05-09T11:26:10.329Z,20.69
2024-05-09T11:30:01.121Z,21.10
2024-05-09T11:33:50.000Z,20.94
2024-05-09T11:37:37.372Z,20.31
2024-05-09T11:40:55.181Z,21.69
2024-05-09T11:44:19.007Z,21.87
2024-05-09T11:47:34.023Z,21.31
2024-05-09T11:51:00.956Z,21.26
2024-05-09T11:54:40.140Z,22.39
2024-05-09T11:58:12.444Z,20.61
2024-05-09T12:01:38.720Z,20.62
2024-05-09T12:05:00.062Z,21.66
2024-05-09T12:08:37.473Z,21.19
2024-05-09T12:12:21.402Z,22.83
2024-05-09T12:15:58.081Z,24.02
2024-05-09T12:19:34.069Z,23.23
2024-05-09T12:22:54.778Z,21.02
2024-05-09T12:26:44.010Z,21.06
2024-05-09T12:29:46.762Z,20.57
2024-05-09T12:33:15.661Z,22.17
2024-05-09T12:36:55.249Z,23.17
2024-05-09T12:40:35.627Z,23.97
2024-05-09T12:44:22.849Z,25.63
2024-05-09T12:48:08.261Z,26.34
2024-05-09T12:51:35.738Z,25.14
2024-05-09T12:55:12.938Z,24.04
2024-05-09T12:58:19.552Z,22.61
2024-05-09T13:01:45.444Z,23.91
2024-05-09T13:05:36.898Z,25.22
2024-05-09T13:09:25.635Z,24.20
2024-05-09T13:13:14.319Z,24.14
2024-05-09T13:16:48.349Z,25.40
2024-05-09T13:20:34.466Z,26.88
2024-05-09T13:24:05.798Z,25.81
2024-05-09T13:27:52.702Z,26.75
2024-05-09T13:31:33.662Z,25.45
2024-05-09T13:34:58.298Z,23.70
2024-05-09T13:38:39.673Z,23.91
2024-05-09T13:42:27.909Z,26.05
2024-05-09T13:46:09.211Z,26.26
2024-05-09T13:49:57.394Z,25.05
2024-05-09T13:53:44.203Z,26.06
2024-05-09T13:57:32.695Z,26.01
2024-05-09T14:00:52.799Z,27.73
2024-05-09T14:04:12.587Z,27.17
2024-05-09T14:07:36.664Z,26.85
2024-05-09T14:11:05.560Z,24.25
2024-05-09T14:14:53.002Z,25.55
2024-05-09T14:18:30.016Z,27.15
2024-05-09T14:21:39.116Z,25.66
2024-05-09T14:25:10.525Z,24.61
2024-05-09T14:29:07.766Z,25.01
2024-05-09T14:32:56.470Z,25.78
2024-05-09T14:36:43.556Z,26.17
2024-05-09T14:40:31.171Z,26.64
2024-05-09T14:44:06.852Z,28.61
2024-05-09T14:47:15.314Z,29.73
2024-05-09T14:51:03.421Z,30.62
2024-05-09T14:54:35.625Z,30.75
2024-05-09T14:58:07.515Z,26.66
2024-05-09T15:01:30.712Z,26.48
2024-05-09T15:05:19.731Z,25.78
2024-05-09T15:09:07.531Z,25.22
2024-05-09T15:12:21.931Z,25.95
2024-05-09T15:15:55.334Z,26.05
2024-05-09T15:19:20.868Z,26.18
2024-05-09T15:22:58.102Z,27.51
2024-05-09T15:26:18.952Z,26.65
2024-05-09T15:29:57.281Z,28.72
2024-05-09T15:33:15.464Z,29.12
2024-05-09T15:36:43.341Z,30.12
2024-05-09T15:40:30.536Z,30.71
2024-05-09T15:44:19.801Z,31.21
2024-05-09T15:48:00.125Z,30.98
2024-05-09T15:51:39.298Z,29.76
2024-05-09T15:54:54.777Z,27.54
2024-05-09T15:57:54.504Z,25.87
2024-05-09T16:01:23.183Z,25.89
2024-05-09T16:04:54.279Z,25.93
2024-05-09T16:08:34.891Z,25.06
2024-05-09T16:11:53.026Z,26.95
2024-05-09T16:15:16.030Z,28.38
2024-05-09T16:18:46.783Z,26.82
2024-05-09T16:22:21.569Z,26.55
2024-05-09T16:26:10.814Z,27.18
2024-05-09T16:29:50.100Z,29.04
2024-05-09T16:33:25.643Z,30.44
2024-05-09T16:36:51.386Z,30.70
2024-05-09T16:40:29.358Z,30.64
2024-05-09T16:44:04.635Z,30.43
2024-05-09T16:47:24.754Z,30.23
2024-05-09T16:51:03.701Z,29.00
2024-05-09T16:54:36.558Z,29.84
2024-05-09T16:58:12.807Z,29.58
2024-05-09T17:01:43.298Z,30.15
2024-05-09T17:05:33.560Z,30.31
2024-05-09T17:08:55.622Z,30.82
2024-05-09T17:12:26.512Z,30.95
2024-05-09T17:15:33.442Z,30.70
2024-05-09T17:19:15.144Z,29.51
2024-05-09T17:22:45.709Z,30.18
2024-05-09T17:26:24.274Z,30.53
2024-05-09T17:30:00.693Z,30.08
2024-05-09T17:33:48.962Z,30.20
2024-05-09T17:37:29.947Z,30.00
2024-05-09T17:40:58.176Z,29.65
2024-05-09T17:44:30.964Z,28.76
2024-05-09T17:47:57.811Z,28.48
2024-05-09T17:51:27.512Z,27.89
2024-05-09T17:54:53.096Z,27.32
2024-05-09T17:58:26.649Z,26.99
2024-05-09T18:01:45.134Z,25.09
2024-05-09T18:04:46.948Z,24.10
2024-05-09T18:08:06.579Z,23.80
2024-05-09T18:11:26.455Z,23.78
2024-05-09T18:14:37.584Z,22.98
2024-05-09T18:18:07.524Z,22.31
2024-05-09T18:21:29.837Z,21.89
2024-05-09T18:24:57.699Z,21.91
2024-05-09T18:28:18.844Z,21.82
2024-05-09T18:31:58.698Z,21.80
2024-05-09T18:35:33.971Z,21.03
2024-05-09T18:39:04.979Z,20.81
2024-05-09T18:42:01.323Z,20.61
2024-05-09T18:45:34.831Z,20.48
2024-05-09T18:48:57.379Z,19.83
2024-05-09T18:51:53.738Z,19.03
2024-05-09T18:55:22.496Z,19.07
2024-05-09T18:58:55.025Z,18.95
2024-05-09T19:02:18.791Z,18.60
2024-05-09T19:05:36.061Z,18.34
2024-05-09T19:08:52.831Z,17.93
2024-05-09T19:12:21.535Z,17.17
2024-05-09T19:15:31.403Z,16.85
2024-05-09T19:18:53.750Z,17.11
2024-05-09T19:22:05.397Z,17.37
2024-05-09T19:28:39.742Z,16.79
2024-05-09T19:32:09.633Z,16.21
2024-05-09T19:35:39.270Z,16.08
2024-05-09T19:38:53.548Z,15.99
2024-05-09T19:41:59.925Z,15.92
2024-05-09T19:44:49.298Z,15.90
2024-05-09T19:47:43.308Z,16.04
2024-05-09T19:51:05.582Z,16.09
2024-05-09T19:54:23.967Z,16.09
2024-05-09T19:57:19.478Z,15.61
2024-05-09T20:00:05.942Z,15.42
2024-05-09T20:03:07.190Z,15.36
2024-05-09T20:06:31.059Z,15.19
2024-05-09T20:09:31.407Z,15.01
2024-05-09T20:13:20.810Z,15.01
2024-05-09T20:21:05.596Z,14.50
2024-05-09T20:24:54.482Z,13.90
2024-05-09T20:28:17.625Z,13.40
2024-05-09T20:31:29.160Z,13.28
2024-05-09T20:34:59.159Z,13.40
2024-05-09T20:38:09.466Z,13.52
2024-05-09T20:41:39.456Z,13.55
2024-05-09T20:45:13.747Z,13.39
2024-05-09T20:48:24.262Z,13.27
2024-05-09T20:51:37.325Z,13.18
2024-05-09T20:55:08.468Z,12.92
2024-05-09T20:58:55.749Z,13.00
2024-05-09T21:02:43.172Z,13.02
2024-05-09T21:06:16.685Z,13.12
2024-05-09T21:09:38.619Z,13.10
2024-05-09T21:12:37.613Z,12.96
2024-05-09T21:16:03.209Z,12.75
2024-05-09T21:19:41.277Z,12.54
2024-05-09T21:23:05.384Z,12.45
2024-05-09T21:26:22.256Z,12.08
2024-05-09T21:29:36.743Z,12.13
2024-05-09T21:33:15.869Z,12.24
2024-05-09T21:36:33.983Z,12.37
2024-05-09T21:39:55.856Z,12.45
2024-05-09T21:43:26.857Z,12.47
2024-05-09T21:47:13.342Z,12.49
2024-05-09T21:51:01.295Z,12.42
2024-05-09T21:54:01.133Z,12.26
2024-05-09T21:57:14.747Z,12.19
2024-05-09T22:00:08.485Z,12.22
2024-05-09T22:03:56.474Z,12.17
2024-05-09T22:06:41.393Z,12.11
2024-05-09T22:09:59.684Z,11.90
2024-05-09T22:13:31.690Z,11.81
2024-05-09T22:16:26.685Z,11.79
2024-05-09T22:19:07.549Z,11.67
2024-05-09T22:22:21.145Z,11.56
2024-05-09T22:25:22.343Z,11.52
2024-05-09T22:27:59.927Z,11.36
2024-05-09T22:30:56.187Z,11.33
2024-05-09T22:33:42.670Z,11.38
2024-05-09T22:36:32.426Z,11.45
2024-05-09T22:39:30.766Z,11.50
2024-05-09T22:42:17.416Z,11.51
2024-05-09T22:45:46.311Z,11.50
2024-05-09T22:48:42.176Z,11.47
2024-05-09T22:51:42.117Z,11.37
2024-05-09T22:54:09.606Z,11.35
2024-05-09T22:57:12.314Z,11.36
2024-05-09T23:00:38.446Z,11.37
2024-05-09T23:03:21.997Z,11.31
2024-05-09T23:06:55.337Z,11.12
2024-05-09T23:10:00.811Z,10.79
2024-05-09T23:13:25.135Z,10.37
2024-05-09T23:16:44.963Z,10.28
2024-05-09T23:19:57.436Z,10.57
2024-05-09T23:23:40.846Z,10.60
2024-05-09T23:27:08.862Z,10.76
2024-05-09T23:30:37.465Z,10.79
2024-05-09T23:34:00.280Z,10.75
2024-05-09T23:37:12.550Z,10.73
2024-05-09T23:40:41.030Z,10.74
2024-05-09T23:43:52.332Z,10.68
2024-05-09T23:47:02.884Z,10.62
2024-05-09T23:49:56.544Z,10.73
2024-05-09T23:53:18.562Z,10.83
2024-05-09T23:56:59.870Z,10.61
2024-05-09T23:59:48.893Z,10.39
